Time;durP1;ratioP1;P1;durP2;ratioP2;P2;SDS_P1;SDS_P2;PMS_P1;PMS_P2;Temp;Humidity;BMP_temperature;BMP_pressure;BME280_temperature;BME280_humidity;BME280_pressure;Samples;Min_cycle;Max_cycle;Signal;HPM_P1;HPM_P2
2022/03/30 00:00:30;;;;;;;0.30;0.30;;;;;;;12.32;84.70;99104.13;5017579;28;20840;-54
2022/03/30 00:02:57;;;;;;;0.67;0.67;;;;;;;12.25;86.39;99092.09;5035305;28;20447;-55
2022/03/30 00:05:24;;;;;;;0.60;0.60;;;;;;;12.23;86.40;99091.31;5034900;28;20451;-55
2022/03/30 00:07:54;;;;;;;0.30;0.20;;;;;;;12.16;87.75;99085.44;5035007;28;20566;-55
2022/03/30 00:10:21;;;;;;;2.43;1.63;;;;;;;12.06;87.80;99079.78;5035116;28;20448;-55
2022/03/30 00:12:48;;;;;;;0.40;0.30;;;;;;;12.02;88.67;99083.53;5034967;28;20502;-54
2022/03/30 00:15:16;;;;;;;2.07;1.87;;;;;;;12.14;87.47;99082.00;5035022;28;20455;-54
2022/03/30 00:17:44;;;;;;;0.30;0.20;;;;;;;12.02;89.47;99088.00;5034923;28;20447;-55
2022/03/30 00:20:11;;;;;;;2.43;0.73;;;;;;;11.93;87.33;99075.19;5034956;28;20471;-55
2022/03/30 00:22:40;;;;;;;0.83;0.80;;;;;;;11.92;87.89;99070.78;5035046;28;20455;-54
2022/03/30 00:25:09;;;;;;;0.30;0.20;;;;;;;11.92;87.67;99071.63;5034808;28;20447;-54
2022/03/30 00:27:36;;;;;;;0.40;0.30;;;;;;;12.06;87.36;99068.22;5034602;28;20491;-54
2022/03/30 00:30:05;;;;;;;1.80;1.30;;;;;;;12.11;86.68;99074.19;5034437;28;20838;-54
2022/03/30 00:32:32;;;;;;;0.50;0.50;;;;;;;12.07;87.55;99070.84;5034757;28;20456;-54
2022/03/30 00:34:59;;;;;;;0.97;0.63;;;;;;;12.03;88.13;99068.41;5034495;28;20486;-54
2022/03/30 00:37:25;;;;;;;0.30;0.20;;;;;;;12.03;88.00;99069.28;5034528;28;20561;-54
2022/03/30 00:39:53;;;;;;;4.23;2.13;;;;;;;11.93;88.49;99067.22;5016751;28;20479;-55
2022/03/30 00:42:22;;;;;;;0.43;0.43;;;;;;;12.03;89.49;99063.94;5034246;28;20451;-55
2022/03/30 00:44:49;;;;;;;0.30;0.20;;;;;;;11.91;90.88;99055.75;5034233;28;20823;-54
2022/03/30 00:47:21;;;;;;;0.50;0.50;;;;;;;11.88;92.92;99055.91;5034395;28;20581;-54
2022/03/30 00:49:49;;;;;;;1.37;1.37;;;;;;;11.79;93.36;99063.47;5034183;28;20472;-54
2022/03/30 00:52:17;;;;;;;0.30;0.20;;;;;;;11.92;93.33;99052.13;5033939;28;20518;-55
2022/03/30 00:54:45;;;;;;;0.30;0.20;;;;;;;11.93;94.11;99052.09;5034496;28;20513;-54
2022/03/30 00:57:14;;;;;;;0.50;0.40;;;;;;;11.92;94.00;99063.66;5033844;28;20455;-54
2022/03/30 00:59:41;;;;;;;0.30;0.20;;;;;;;11.98;93.00;99062.47;5034007;28;20502;-54
2022/03/30 01:02:09;;;;;;;0.40;0.30;;;;;;;11.90;93.09;99070.88;5034139;28;20452;-55
2022/03/30 01:04:36;;;;;;;0.30;0.20;;;;;;;11.94;93.78;99061.78;5034117;28;20452;-54
2022/03/30 01:07:03;;;;;;;0.30;0.20;;;;;;;11.85;93.94;99057.81;5033768;28;20605;-54
2022/03/30 01:09:30;;;;;;;9.77;1.60;;;;;;;11.80;93.36;99054.53;5033875;28;20505;-55
2022/03/30 01:11:57;;;;;;;0.30;0.20;;;;;;;11.94;93.82;99058.28;5016115;28;20743;-55
2022/03/30 01:14:25;;;;;;;0.97;0.97;;;;;;;11.96;94.46;99049.25;5034146;28;20483;-55
2022/03/30 01:16:51;;;;;;;0.40;0.40;;;;;;;12.08;93.39;99053.91;5033737;28;20444;-55
2022/03/30 01:19:20;;;;;;;1.37;1.27;;;;;;;11.95;96.27;99042.22;5033847;28;20471;-54
2022/03/30 01:21:47;;;;;;;0.40;0.40;;;;;;;11.93;99.61;99043.25;5033758;28;20455;-54
2022/03/30 01:24:14;;;;;;;0.70;0.70;;;;;;;11.90;100.00;99038.06;5033726;28;20448;-55
2022/03/30 01:26:41;;;;;;;0.30;0.20;;;;;;;11.74;100.00;99041.50;5033433;28;20444;-55
2022/03/30 01:34:41;;;;;;;19.53;3.30;;;;;;;11.53;100.00;99026.69;5033333;28;20447;-54
2022/03/30 01:37:09;;;;;;;0.30;0.20;;;;;;;11.61;100.00;99031.59;5033463;28;20474;-54
2022/03/30 01:39:35;;;;;;;6.83;0.93;;;;;;;11.58;100.00;99020.19;5033585;28;20502;-53
2022/03/30 01:42:02;;;;;;;0.30;0.20;;;;;;;11.54;100.00;99017.78;5033287;28;20474;-53
2022/03/30 01:44:30;;;;;;;1.23;1.23;;;;;;;11.55;100.00;99022.16;5033208;28;20952;-54
2022/03/30 01:46:56;;;;;;;0.30;0.20;;;;;;;11.42;100.00;99011.28;5033187;28;20900;-54
2022/03/30 01:49:24;;;;;;;0.40;0.40;;;;;;;11.32;100.00;99010.03;5032977;28;20503;-54
2022/03/30 01:51:56;;;;;;;1.80;1.27;;;;;;;11.20;100.00;99008.88;5015789;28;20459;-53
2022/03/30 01:54:25;;;;;;;0.30;0.20;;;;;;;11.36;100.00;99014.25;5033401;28;20476;-53
2022/03/30 01:56:54;;;;;;;0.50;0.50;;;;;;;11.44;100.00;99008.53;5033174;28;20482;-54
2022/03/30 01:59:22;;;;;;;1.50;0.50;;;;;;;11.34;100.00;99010.81;5021334;28;20503;-53
2022/03/30 02:01:49;;;;;;;0.43;0.43;;;;;;;11.37;100.00;99005.34;5032908;28;20513;-53
2022/03/30 02:04:15;;;;;;;0.50;0.43;;;;;;;11.49;100.00;98999.38;5032450;28;20448;-53
2022/03/30 02:06:42;;;;;;;0.30;0.20;;;;;;;11.44;100.00;98998.75;5032910;28;20452;-53
2022/03/30 02:09:12;;;;;;;0.73;0.73;;;;;;;11.47;100.00;99001.25;5032692;28;20467;-53
2022/03/30 02:11:39;;;;;;;0.30;0.20;;;;;;;11.40;100.00;99002.53;5032751;28;21026;-53
2022/03/30 02:14:06;;;;;;;0.30;0.20;;;;;;;11.36;100.00;98992.13;5032784;28;20502;-53
2022/03/30 02:16:33;;;;;;;0.40;0.40;;;;;;;11.26;100.00;98997.94;5032520;28;20448;-53
2022/03/30 02:19:00;;;;;;;0.30;0.20;;;;;;;11.28;100.00;98990.72;5015373;28;20467;-54
2022/03/30 02:21:27;;;;;;;0.30;0.20;;;;;;;11.41;100.00;98992.75;5032795;28;20447;-54
2022/03/30 02:23:54;;;;;;;0.30;0.20;;;;;;;11.84;100.00;98991.34;5032754;28;20467;-53
2022/03/30 02:26:20;;;;;;;0.70;0.70;;;;;;;11.75;98.80;98990.00;5032520;28;20502;-53
2022/03/30 02:28:54;;;;;;;0.33;0.23;;;;;;;11.83;99.23;98985.16;5032397;28;20487;-54
2022/03/30 02:31:22;;;;;;;0.30;0.20;;;;;;;12.10;96.23;98974.78;5032622;28;20212;-54
2022/03/30 02:33:49;;;;;;;0.30;0.20;;;;;;;11.90;97.14;98975.00;5032454;28;20998;-54
2022/03/30 02:36:16;;;;;;;2.73;2.63;;;;;;;11.86;97.33;98976.13;5032197;28;20466;-53
2022/03/30 02:38:44;;;;;;;0.30;0.20;;;;;;;11.85;96.99;98969.09;5032199;28;21061;-54
2022/03/30 02:41:11;;;;;;;0.50;0.50;;;;;;;11.87;95.22;98964.53;5032340;28;20502;-53
2022/03/30 02:43:39;;;;;;;0.30;0.20;;;;;;;11.81;96.52;98951.56;5032298;28;20452;-53
2022/03/30 02:46:05;;;;;;;0.30;0.20;;;;;;;11.56;96.85;98950.22;5032155;28;20480;-53
2022/03/30 02:48:33;;;;;;;1.17;0.87;;;;;;;11.40;98.73;98948.47;5031956;28;20506;-53
2022/03/30 02:51:05;;;;;;;0.30;0.20;;;;;;;11.28;98.80;98947.31;5032036;28;20459;-53
2022/03/30 02:53:33;;;;;;;1.03;1.03;;;;;;;11.15;100.00;98941.78;5032266;28;20865;-53
2022/03/30 02:56:01;;;;;;;0.30;0.20;;;;;;;11.08;100.00;98937.72;5031935;28;20871;-53
2022/03/30 02:58:28;;;;;;;5.50;2.70;;;;;;;11.05;100.00;98945.00;5032365;28;20526;-54
2022/03/30 03:00:55;;;;;;;0.43;0.40;;;;;;;10.96;100.00;98941.91;5032185;28;20525;-53
2022/03/30 03:03:23;;;;;;;0.30;0.20;;;;;;;10.92;100.00;98940.31;5031939;28;20452;-54
2022/03/30 03:05:51;;;;;;;0.40;0.30;;;;;;;11.03;100.00;98936.25;5031993;28;20543;-53
2022/03/30 03:08:17;;;;;;;0.70;0.70;;;;;;;11.01;100.00;98928.34;5031690;28;21017;-53
2022/03/30 03:10:46;;;;;;;0.30;0.20;;;;;;;11.06;100.00;98923.63;5031807;28;20482;-54
2022/03/30 03:13:16;;;;;;;0.40;0.30;;;;;;;11.24;100.00;98919.16;5031800;28;20448;-55
2022/03/30 03:15:45;;;;;;;1.13;0.97;;;;;;;10.86;100.00;98918.50;5032021;28;20522;-54
2022/03/30 03:18:18;;;;;;;1.33;1.13;;;;;;;10.64;100.00;98916.94;5031872;28;20459;-53
2022/03/30 03:20:47;;;;;;;0.30;0.20;;;;;;;10.78;100.00;98916.25;5031845;28;20586;-54
2022/03/30 03:23:15;;;;;;;1.90;1.90;;;;;;;10.66;100.00;98912.41;5031674;28;20451;-54
2022/03/30 03:25:43;;;;;;;0.33;0.30;;;;;;;10.81;100.00;98904.59;5031882;28;20505;-54
2022/03/30 03:28:11;;;;;;;0.73;0.73;;;;;;;10.79;100.00;98909.97;5031618;28;20959;-53
2022/03/30 03:30:38;;;;;;;0.30;0.20;;;;;;;10.69;100.00;98908.75;5031940;28;20490;-53
2022/03/30 03:33:06;;;;;;;1.80;0.57;;;;;;;10.99;100.00;98914.28;5031700;28;20452;-54
2022/03/30 03:35:34;;;;;;;1.17;1.17;;;;;;;10.76;100.00;98909.28;5031631;28;20476;-54
2022/03/30 03:38:01;;;;;;;0.30;0.20;;;;;;;10.88;100.00;98900.69;5031654;28;20455;-54
2022/03/30 03:40:30;;;;;;;0.30;0.20;;;;;;;10.93;100.00;98904.81;5031752;28;20925;-54
2022/03/30 03:42:58;;;;;;;0.73;0.73;;;;;;;10.74;100.00;98903.19;5031558;28;20826;-52
2022/03/30 03:45:25;;;;;;;0.40;0.30;;;;;;;10.57;100.00;98899.63;5031705;28;20873;-53
2022/03/30 03:47:51;;;;;;;0.50;0.40;;;;;;;10.38;100.00;98893.50;5018154;28;21028;-53
2022/03/30 03:50:18;;;;;;;1.20;1.00;;;;;;;10.52;100.00;98901.63;5031424;28;20456;-53
2022/03/30 03:52:45;;;;;;;0.30;0.20;;;;;;;10.59;100.00;98904.84;5031509;28;20463;-53
2022/03/30 03:55:17;;;;;;;0.50;0.50;;;;;;;11.02;100.00;98914.13;5031568;28;20452;-54
2022/03/30 03:57:44;;;;;;;1.37;1.37;;;;;;;11.07;100.00;98916.53;5031422;28;20451;-53
2022/03/30 04:00:12;;;;;;;1.03;1.03;;;;;;;10.98;100.00;98915.22;5031106;28;20984;-54
2022/03/30 04:02:40;;;;;;;0.30;0.20;;;;;;;10.87;100.00;98917.56;5031306;28;20452;-54
2022/03/30 04:05:12;;;;;;;0.40;0.30;;;;;;;10.85;100.00;98922.13;5031432;28;20796;-54
2022/03/30 04:07:38;;;;;;;8.30;1.87;;;;;;;10.77;100.00;98926.94;5013826;28;20537;-53
2022/03/30 04:10:07;;;;;;;0.30;0.20;;;;;;;10.64;100.00;98929.38;5031130;28;20482;-54
2022/03/30 04:12:33;;;;;;;2.83;1.53;;;;;;;10.13;100.00;98908.88;5031232;28;20452;-54
2022/03/30 04:15:00;;;;;;;1.47;0.73;;;;;;;9.92;100.00;98909.00;5031215;28;20490;-53
2022/03/30 04:17:27;;;;;;;2.73;0.97;;;;;;;10.04;100.00;98913.72;5031252;28;20478;-54
2022/03/30 04:19:54;;;;;;;4.83;0.87;;;;;;;10.30;100.00;98917.78;5031384;28;20526;-53
2022/03/30 04:22:20;;;;;;;6.47;1.60;;;;;;;10.27;100.00;98928.53;5031447;28;20825;-53
2022/03/30 04:24:47;;;;;;;0.90;0.90;;;;;;;10.43;100.00;98930.47;5031213;28;20456;-54
2022/03/30 04:27:14;;;;;;;0.30;0.20;;;;;;;10.44;100.00;98929.53;5033733;28;20501;-54
2022/03/30 04:29:41;;;;;;;0.40;0.20;;;;;;;10.53;100.00;98931.72;5034471;28;20495;-54
2022/03/30 04:32:08;;;;;;;0.60;0.20;;;;;;;10.28;100.00;98927.63;5034666;28;20456;-53
2022/03/30 04:34:35;;;;;;;0.30;0.20;;;;;;;10.27;100.00;98925.03;5034726;28;20483;-54
2022/03/30 04:37:02;;;;;;;0.40;0.30;;;;;;;10.20;100.00;98920.94;5027044;28;20456;-54
2022/03/30 04:39:28;;;;;;;0.30;0.20;;;;;;;10.24;100.00;98923.41;5032331;28;20480;-53
2022/03/30 04:41:55;;;;;;;14.03;2.10;;;;;;;9.99;100.00;98928.13;5034905;28;20490;-53
2022/03/30 04:44:22;;;;;;;1.37;0.63;;;;;;;10.03;100.00;98922.63;5034400;28;20510;-54
2022/03/30 04:46:48;;;;;;;0.30;0.20;;;;;;;10.01;100.00;98921.00;5034790;28;20451;-53
2022/03/30 04:49:15;;;;;;;0.40;0.40;;;;;;;10.07;100.00;98920.69;5034441;28;20519;-53
2022/03/30 04:51:41;;;;;;;0.30;0.20;;;;;;;10.26;100.00;98923.31;5034491;28;20478;-54
2022/03/30 04:54:08;;;;;;;0.30;0.20;;;;;;;10.39;100.00;98914.66;5034520;28;20479;-53
2022/03/30 04:56:35;;;;;;;1.60;1.03;;;;;;;10.19;100.00;98921.88;5034561;28;20448;-54
2022/03/30 04:59:02;;;;;;;0.40;0.37;;;;;;;10.38;100.00;98914.75;5034004;28;20494;-54
2022/03/30 05:01:29;;;;;;;0.30;0.20;;;;;;;10.29;100.00;98920.53;5034495;28;20489;-54
2022/03/30 05:03:56;;;;;;;0.40;0.33;;;;;;;9.76;100.00;98922.16;5034444;28;20456;-53
2022/03/30 05:06:23;;;;;;;1.07;1.07;;;;;;;9.94;100.00;98920.41;5016605;28;20447;-55
2022/03/30 05:08:49;;;;;;;0.40;0.33;;;;;;;9.91;100.00;98912.59;5033935;28;20499;-53
2022/03/30 05:11:16;;;;;;;0.30;0.20;;;;;;;9.77;100.00;98907.94;5034061;28;20866;-54
2022/03/30 05:13:42;;;;;;;0.60;0.60;;;;;;;9.89;100.00;98917.13;5033844;28;20448;-53
2022/03/30 05:16:09;;;;;;;2.50;1.47;;;;;;;9.85;100.00;98912.88;5034303;28;20510;-54
2022/03/30 05:18:36;;;;;;;0.30;0.20;;;;;;;10.35;100.00;98917.56;5033908;28;20558;-54
2022/03/30 05:21:03;;;;;;;2.43;2.30;;;;;;;9.79;100.00;98916.69;5033888;28;20447;-53
2022/03/30 05:23:30;;;;;;;2.20;2.10;;;;;;;9.75;100.00;98915.13;5016233;28;20952;-54
2022/03/30 05:25:56;;;;;;;0.40;0.30;;;;;;;9.90;100.00;98923.28;5033787;28;20550;-53
2022/03/30 05:28:23;;;;;;;1.47;0.70;;;;;;;9.84;100.00;98918.25;5033594;28;21043;-54
2022/03/30 05:30:49;;;;;;;0.30;0.20;;;;;;;9.64;100.00;98924.53;5033986;28;20452;-54
2022/03/30 05:33:17;;;;;;;0.30;0.20;;;;;;;9.75;100.00;98917.78;5033918;28;20447;-54
2022/03/30 05:35:44;;;;;;;0.30;0.20;;;;;;;9.58;100.00;98928.31;5033837;28;20490;-53
2022/03/30 05:38:10;;;;;;;0.73;0.70;;;;;;;9.55;100.00;98924.94;5032456;28;20813;-53
2022/03/30 05:40:37;;;;;;;0.40;0.23;;;;;;;9.41;100.00;98922.91;5033519;28;20439;-53
2022/03/30 05:43:04;;;;;;;0.70;0.70;;;;;;;9.54;100.00;98918.78;5033443;28;20459;-53
2022/03/30 05:45:31;;;;;;;0.30;0.20;;;;;;;9.48;100.00;98922.59;5033627;28;20451;-53
2022/03/30 05:47:57;;;;;;;2.33;1.50;;;;;;;9.58;100.00;98919.47;5033512;28;20497;-53
2022/03/30 05:50:25;;;;;;;0.40;0.30;;;;;;;9.47;100.00;98922.66;5033386;28;20487;-53
2022/03/30 05:52:52;;;;;;;0.37;0.27;;;;;;;9.30;100.00;98919.91;5033354;28;20447;-54
2022/03/30 05:55:18;;;;;;;3.47;2.73;;;;;;;9.46;100.00;98928.91;5033101;28;20456;-53
2022/03/30 05:57:45;;;;;;;1.33;1.33;;;;;;;9.40;100.00;98918.56;5033281;28;20514;-53
2022/03/30 06:00:12;;;;;;;0.30;0.20;;;;;;;9.43;100.00;98929.00;5033096;28;20502;-53
2022/03/30 06:02:40;;;;;;;0.30;0.20;;;;;;;9.57;100.00;98923.06;5033076;28;20448;-54
2022/03/30 06:05:07;;;;;;;2.57;0.87;;;;;;;9.54;100.00;98921.44;5033179;28;20502;-53
2022/03/30 06:07:33;;;;;;;0.97;0.97;;;;;;;9.67;100.00;98927.03;5033130;28;20490;-53
2022/03/30 06:10:00;;;;;;;0.93;0.87;;;;;;;9.59;100.00;98922.06;5032836;28;20496;-54
2022/03/30 06:12:26;;;;;;;1.57;1.53;;;;;;;9.52;100.00;98930.38;5033174;28;20447;-54
2022/03/30 06:14:53;;;;;;;0.30;0.20;;;;;;;9.46;100.00;98924.44;5032992;28;20474;-54
2022/03/30 06:17:20;;;;;;;1.07;1.07;;;;;;;9.53;100.00;98925.00;5032941;28;20487;-53
2022/03/30 06:19:52;;;;;;;0.40;0.30;;;;;;;9.55;100.00;98919.63;5032831;28;20519;-53
2022/03/30 06:22:20;;;;;;;2.60;1.23;;;;;;;9.44;100.00;98915.69;5032723;28;20529;-54
2022/03/30 06:24:47;;;;;;;0.50;0.40;;;;;;;9.32;100.00;98918.03;5032890;28;20447;-53
2022/03/30 06:27:14;;;;;;;0.30;0.23;;;;;;;9.38;100.00;98923.06;5032942;28;20444;-53
2022/03/30 06:29:41;;;;;;;1.97;1.93;;;;;;;9.18;100.00;98921.31;5032322;28;20491;-53
2022/03/30 06:32:09;;;;;;;0.30;0.20;;;;;;;9.42;100.00;98924.66;5032603;28;20452;-53
2022/03/30 06:34:37;;;;;;;0.30;0.20;;;;;;;9.57;100.00;98933.69;5032536;28;20455;-54
2022/03/30 06:37:05;;;;;;;0.97;0.97;;;;;;;9.84;100.00;98928.88;5032524;28;20509;-53
2022/03/30 06:39:35;;;;;;;0.30;0.20;;;;;;;9.67;100.00;98935.84;5032403;28;20533;-54
2022/03/30 06:42:08;;;;;;;0.30;0.20;;;;;;;10.17;100.00;98927.25;5032561;28;20479;-53
2022/03/30 06:44:34;;;;;;;0.40;0.40;;;;;;;9.93;100.00;98936.41;5019254;28;20496;-53
2022/03/30 06:47:01;;;;;;;0.90;0.90;;;;;;;9.72;100.00;98941.78;5032536;28;20537;-53
2022/03/30 06:49:28;;;;;;;0.40;0.30;;;;;;;9.76;100.00;98946.03;5031997;28;20488;-53
2022/03/30 06:51:54;;;;;;;1.00;1.00;;;;;;;9.83;100.00;98940.44;5032742;28;20452;-53
2022/03/30 06:54:21;;;;;;;0.40;0.40;;;;;;;9.84;100.00;98937.69;5032614;28;20514;-53
2022/03/30 06:56:48;;;;;;;0.73;0.73;;;;;;;9.69;100.00;98930.47;5032718;28;20483;-54
2022/03/30 06:59:14;;;;;;;0.30;0.20;;;;;;;9.80;100.00;98937.00;5032579;28;20582;-53
2022/03/30 07:01:41;;;;;;;3.40;1.27;;;;;;;9.51;100.00;98940.16;5014541;28;20896;-54
2022/03/30 07:04:08;;;;;;;1.23;0.83;;;;;;;9.80;100.00;98936.13;5019279;28;20865;-53
2022/03/30 07:06:34;;;;;;;0.30;0.20;;;;;;;9.75;100.00;98941.66;5031906;28;20891;-53
2022/03/30 07:11:46;;;;;;;0.30;0.20;;;;;;;9.53;100.00;98932.13;5032032;28;20814;-53
2022/03/30 07:14:13;;;;;;;0.30;0.20;;;;;;;9.53;100.00;98930.31;5031837;28;20447;-54
2022/03/30 07:16:39;;;;;;;5.73;2.07;;;;;;;9.57;100.00;98933.69;5032061;28;20444;-54
2022/03/30 07:19:06;;;;;;;0.60;0.60;;;;;;;9.65;100.00;98923.59;5032165;28;20526;-53
2022/03/30 07:21:33;;;;;;;3.33;2.07;;;;;;;9.61;100.00;98928.19;5031873;28;20820;-54
2022/03/30 07:24:00;;;;;;;0.30;0.20;;;;;;;9.50;100.00;98925.16;5031969;28;20456;-54
2022/03/30 07:26:27;;;;;;;0.30;0.20;;;;;;;9.65;100.00;98929.75;5032289;28;20455;-54
2022/03/30 07:28:54;;;;;;;0.30;0.20;;;;;;;9.57;100.00;98921.28;5031643;28;20526;-54
2022/03/30 07:31:20;;;;;;;0.30;0.20;;;;;;;9.47;100.00;98923.53;5031768;28;20510;-54
2022/03/30 07:33:47;;;;;;;0.30;0.20;;;;;;;9.62;100.00;98924.59;5031767;28;20447;-53
2022/03/30 07:36:14;;;;;;;0.40;0.40;;;;;;;9.49;100.00;98923.44;5031979;28;20510;-53
2022/03/30 07:38:40;;;;;;;0.30;0.20;;;;;;;9.25;100.00;98917.47;5032240;28;20484;-53
2022/03/30 07:41:07;;;;;;;0.40;0.30;;;;;;;9.42;100.00;98925.50;5031591;28;20455;-53
2022/03/30 07:43:34;;;;;;;0.30;0.20;;;;;;;9.29;100.00;98919.03;5031661;28;20452;-53
2022/03/30 07:46:01;;;;;;;0.30;0.20;;;;;;;9.62;100.00;98921.94;5031792;28;20505;-54
2022/03/30 07:48:27;;;;;;;0.40;0.30;;;;;;;9.50;100.00;98927.81;5031762;28;20471;-53
2022/03/30 07:50:54;;;;;;;0.30;0.20;;;;;;;9.49;100.00;98915.50;5031654;28;20513;-54
2022/03/30 07:53:27;;;;;;;0.30;0.20;;;;;;;9.42;100.00;98919.34;5031830;28;20454;-54
2022/03/30 07:55:55;;;;;;;0.30;0.20;;;;;;;9.56;100.00;98922.22;5032117;28;20487;-53
2022/03/30 07:58:21;;;;;;;0.80;0.80;;;;;;;9.35;100.00;98917.91;5031377;28;20472;-53
2022/03/30 08:00:48;;;;;;;0.67;0.67;;;;;;;9.41;100.00;98928.22;5031851;28;20486;-53
2022/03/30 08:03:15;;;;;;;0.30;0.20;;;;;;;9.37;100.00;98931.97;5035558;28;20953;-53
2022/03/30 08:05:42;;;;;;;0.30;0.20;;;;;;;9.34;100.00;98924.16;5035216;28;20793;-54
2022/03/30 08:08:09;;;;;;;2.20;2.00;;;;;;;9.49;100.00;98926.09;5035093;28;20475;-54
2022/03/30 08:10:37;;;;;;;0.40;0.30;;;;;;;9.58;100.00;98925.66;5035142;28;20491;-53
2022/03/30 08:13:04;;;;;;;0.30;0.30;;;;;;;9.55;100.00;98925.81;5035388;28;20451;-54
2022/03/30 08:15:33;;;;;;;0.30;0.20;;;;;;;9.55;100.00;98928.44;5035370;28;20452;-54
2022/03/30 08:17:59;;;;;;;0.30;0.20;;;;;;;9.28;100.00;98922.63;5035100;28;20964;-53
2022/03/30 08:23:11;;;;;;;0.30;0.30;;;;;;;9.49;100.00;98928.75;5035043;28;20493;-54
2022/03/30 08:25:39;;;;;;;0.30;0.20;;;;;;;9.47;100.00;98927.97;5034978;28;20538;-54
2022/03/30 08:28:06;;;;;;;1.43;1.43;;;;;;;9.52;100.00;98928.59;5035028;28;20452;-53
2022/03/30 08:30:33;;;;;;;0.40;0.23;;;;;;;9.52;100.00;98925.94;5035024;28;20483;-53
2022/03/30 08:33:01;;;;;;;0.30;0.20;;;;;;;9.86;100.00;98925.22;5034922;28;20451;-54
2022/03/30 08:35:29;;;;;;;0.70;0.70;;;;;;;10.10;100.00;98926.69;5034845;28;20494;-54
2022/03/30 08:37:56;;;;;;;0.47;0.47;;;;;;;10.06;100.00;98919.81;5034636;28;20451;-54
2022/03/30 08:40:23;;;;;;;5.03;4.33;;;;;;;9.79;100.00;98927.31;5034908;28;20471;-54
2022/03/30 08:42:51;;;;;;;1.53;0.50;;;;;;;10.05;100.00;98920.75;5034648;28;21006;-54
2022/03/30 08:45:18;;;;;;;0.57;0.57;;;;;;;10.07;100.00;98920.69;5034645;28;20451;-54
2022/03/30 08:47:46;;;;;;;0.30;0.20;;;;;;;10.18;100.00;98922.81;5034658;28;20455;-55
2022/03/30 08:50:13;;;;;;;0.30;0.20;;;;;;;10.29;100.00;98921.41;5034584;28;20491;-54
2022/03/30 08:52:41;;;;;;;0.40;0.40;;;;;;;10.29;100.00;98924.03;5034699;28;20448;-54
2022/03/30 08:55:08;;;;;;;0.30;0.20;;;;;;;10.16;100.00;98912.28;5034390;28;20458;-54
2022/03/30 08:57:35;;;;;;;0.50;0.47;;;;;;;10.22;100.00;98929.72;5034491;28;20452;-54
2022/03/30 09:00:09;;;;;;;0.43;0.43;;;;;;;10.49;100.00;98924.84;5034358;28;20460;-54
2022/03/30 09:02:41;;;;;;;0.97;0.97;;;;;;;10.41;100.00;98917.25;5034401;28;20451;-54
2022/03/30 09:05:12;;;;;;;1.03;0.60;;;;;;;10.47;100.00;98918.75;5034459;28;20448;-54
2022/03/30 09:07:40;;;;;;;0.30;0.20;;;;;;;10.38;100.00;98923.56;5034286;28;20447;-54
2022/03/30 09:10:18;;;;;;;0.70;0.70;;;;;;;10.35;100.00;98923.72;5034299;28;20495;-54
2022/03/30 09:12:47;;;;;;;0.30;0.20;;;;;;;10.49;100.00;98919.53;5034120;28;20451;-54
2022/03/30 09:15:15;;;;;;;0.50;0.50;;;;;;;10.31;100.00;98913.34;5033967;28;20486;-54
2022/03/30 09:18:04;;;;;;;0.30;0.20;;;;;;;10.29;100.00;98917.88;5019003;28;20455;-55
2022/03/30 09:20:40;;;;;;;2.60;2.50;;;;;;;10.34;100.00;98918.50;5033091;28;20447;-54
2022/03/30 09:23:10;;;;;;;0.30;0.20;;;;;;;10.24;100.00;98918.09;5034197;28;20948;-53
2022/03/30 09:25:48;;;;;;;0.83;0.83;;;;;;;10.23;100.00;98911.06;5033863;28;20523;-54
2022/03/30 09:28:20;;;;;;;0.30;0.20;;;;;;;10.24;100.00;98910.13;5034073;28;20582;-54
2022/03/30 09:30:49;;;;;;;2.50;2.40;;;;;;;10.39;100.00;98919.97;5034069;28;20491;-53
2022/03/30 09:33:17;;;;;;;0.40;0.40;;;;;;;10.53;100.00;98915.75;5033909;28;20448;-54
2022/03/30 09:35:45;;;;;;;0.30;0.20;;;;;;;10.69;100.00;98922.06;5033703;28;20455;-54
2022/03/30 09:38:14;;;;;;;0.30;0.20;;;;;;;10.23;100.00;98912.84;5033559;28;20482;-54
2022/03/30 09:40:43;;;;;;;1.60;1.60;;;;;;;10.46;100.00;98919.69;5033815;28;20877;-54
2022/03/30 09:43:24;;;;;;;15.67;2.73;;;;;;;10.38;100.00;98920.91;5033845;28;20451;-54
2022/03/30 09:46:12;;;;;;;0.60;0.60;;;;;;;10.21;100.00;98917.34;5033536;28;20451;-55
2022/03/30 09:48:43;;;;;;;0.87;0.87;;;;;;;10.30;100.00;98917.78;5033431;28;20468;-54
2022/03/30 09:51:10;;;;;;;0.30;0.20;;;;;;;10.43;100.00;98920.69;5033897;28;20451;-54
2022/03/30 09:53:37;;;;;;;0.33;0.20;;;;;;;10.41;100.00;98919.03;5033680;28;20824;-54
2022/03/30 09:56:13;;;;;;;0.30;0.20;;;;;;;10.45;100.00;98913.50;5033558;28;20498;-54
2022/03/30 09:58:41;;;;;;;0.50;0.47;;;;;;;10.38;100.00;98915.59;5033456;28;20886;-54
2022/03/30 10:01:22;;;;;;;1.40;1.33;;;;;;;10.41;100.00;98913.72;5033246;28;20929;-54
2022/03/30 10:03:53;;;;;;;0.87;0.87;;;;;;;10.43;100.00;98901.25;5033537;28;20448;-54
2022/03/30 10:06:32;;;;;;;0.30;0.20;;;;;;;10.38;100.00;98904.13;5033102;28;20459;-54
2022/03/30 10:09:03;;;;;;;0.40;0.20;;;;;;;10.57;100.00;98885.47;5020294;28;20474;-54
2022/03/30 10:11:30;;;;;;;0.30;0.20;;;;;;;10.59;100.00;98903.03;5033124;28;20479;-55
2022/03/30 10:13:59;;;;;;;0.50;0.50;;;;;;;10.62;100.00;98894.06;5033290;28;20506;-54
2022/03/30 10:16:43;;;;;;;1.00;1.00;;;;;;;10.88;100.00;98896.22;5033133;28;20451;-54
2022/03/30 10:19:11;;;;;;;0.40;0.27;;;;;;;10.47;100.00;98887.72;5032998;28;20522;-54
2022/03/30 10:22:03;;;;;;;0.30;0.20;;;;;;;10.68;100.00;98888.41;5032831;28;20479;-54
2022/03/30 10:24:56;;;;;;;0.30;0.20;;;;;;;10.84;100.00;98868.09;5032463;28;20502;-54
2022/03/30 10:27:32;;;;;;;0.30;0.20;;;;;;;10.84;100.00;98878.72;5032968;28;20452;-54
2022/03/30 10:30:04;;;;;;;0.87;0.87;;;;;;;10.93;100.00;98869.38;5032757;28;20530;-54
2022/03/30 10:32:39;;;;;;;0.30;0.20;;;;;;;11.02;100.00;98865.41;5032930;28;20885;-54
2022/03/30 10:35:11;;;;;;;0.73;0.73;;;;;;;11.57;100.00;98866.78;5020566;28;20473;-54
2022/03/30 10:37:40;;;;;;;1.40;1.40;;;;;;;11.37;100.00;98872.31;5032532;28;20436;-53
2022/03/30 10:40:08;;;;;;;0.30;0.20;;;;;;;11.70;99.71;98860.75;5032694;28;20549;-54
2022/03/30 10:42:47;;;;;;;2.67;0.97;;;;;;;11.50;100.00;98865.38;5015039;28;20448;-54
2022/03/30 10:45:28;;;;;;;0.30;0.20;;;;;;;11.41;100.00;98865.03;5032875;28;20456;-53
2022/03/30 10:48:12;;;;;;;1.90;1.50;;;;;;;11.60;100.00;98865.72;5019282;28;20534;-54
2022/03/30 10:50:49;;;;;;;0.40;0.30;;;;;;;11.71;100.00;98865.13;5031363;28;20487;-54
2022/03/30 10:53:31;;;;;;;0.50;0.50;;;;;;;11.22;98.26;98863.38;5032459;28;20800;-54
2022/03/30 10:56:26;;;;;;;0.53;0.53;;;;;;;11.67;96.24;98858.28;5032588;28;20456;-54
2022/03/30 10:58:55;;;;;;;0.40;0.40;;;;;;;11.45;98.16;98853.28;5024995;28;20486;-54
2022/03/30 11:01:29;;;;;;;0.77;0.77;;;;;;;11.90;95.74;98849.00;5032315;28;20498;-54
2022/03/30 11:04:04;;;;;;;0.30;0.30;;;;;;;11.96;95.82;98849.53;5032365;28;20458;-54
2022/03/30 11:06:35;;;;;;;0.30;0.20;;;;;;;11.88;95.32;98850.91;5032249;28;20455;-54
2022/03/30 11:09:11;;;;;;;0.80;0.70;;;;;;;11.61;97.71;98848.81;5019877;28;20467;-54
2022/03/30 11:11:43;;;;;;;0.40;0.40;;;;;;;12.10;95.35;98849.59;5032296;28;20867;-53
2022/03/30 11:14:45;;;;;;;0.43;0.43;;;;;;;12.23;94.74;98855.06;5031970;28;20983;-53
2022/03/30 11:17:13;;;;;;;0.70;0.60;;;;;;;11.95;93.37;98849.63;5020115;28;20945;-53
2022/03/30 11:19:55;;;;;;;0.30;0.20;;;;;;;12.15;94.52;98838.66;5019737;28;20463;-53
2022/03/30 11:22:21;;;;;;;0.30;0.30;;;;;;;12.08;94.53;98834.66;5032054;28;20504;-53
2022/03/30 11:25:26;;;;;;;0.40;0.40;;;;;;;11.95;96.21;98837.16;5014409;28;20474;-54
2022/03/30 11:28:12;;;;;;;1.47;1.43;;;;;;;12.13;95.90;98841.41;5031879;28;20444;-53
2022/03/30 11:30:43;;;;;;;0.40;0.30;;;;;;;12.47;92.99;98839.41;5031699;28;20537;-53
2022/03/30 11:33:14;;;;;;;0.30;0.20;;;;;;;12.13;93.19;98840.56;5032096;28;20830;-53
2022/03/30 11:35:43;;;;;;;0.30;0.20;;;;;;;11.90;91.26;98835.69;5032284;28;20448;-53
2022/03/30 11:38:27;;;;;;;0.30;0.20;;;;;;;12.08;92.02;98838.16;5035906;28;20521;-53
2022/03/30 11:41:05;;;;;;;0.30;0.20;;;;;;;12.13;93.15;98829.91;5035937;28;20501;-53
2022/03/30 11:45:12;;;;;;;2.30;2.20;;;;;;;12.02;91.81;98832.31;5036560;28;20486;-53
2022/03/30 11:46:27;;;;;;;0.60;0.60;;;;;;;11.92;93.44;98831.13;5035941;28;20518;-54
2022/03/30 11:49:00;;;;;;;0.30;0.20;;;;;;;11.73;92.05;98832.16;5029853;28;20471;-54